createdAt,value
2022-09-07T00:00:15.266Z,26.45
2022-09-07T00:03:18.081Z,31.00
2022-09-07T00:06:20.380Z,25.38
2022-09-07T00:09:22.612Z,24.95
2022-09-07T00:12:25.253Z,27.70
2022-09-07T00:15:27.983Z,28.92
2022-09-07T00:18:30.367Z,27.50
2022-09-07T00:21:32.867Z,29.40
2022-09-07T00:24:35.344Z,29.20
2022-09-07T00:27:37.591Z,29.33
2022-09-07T00:30:43.055Z,28.50
2022-09-07T00:33:46.332Z,27.00
2022-09-07T00:36:48.500Z,26.73
2022-09-07T00:39:51.147Z,28.30
2022-09-07T00:42:53.425Z,27.75
2022-09-07T00:45:55.755Z,29.10
2022-09-07T00:49:00.388Z,29.20
2022-09-07T00:52:03.998Z,29.45
2022-09-07T00:55:09.355Z,29.35
2022-09-07T00:58:11.899Z,32.28
2022-09-07T01:01:14.684Z,29.05
2022-09-07T01:04:17.634Z,29.03
2022-09-07T01:07:21.380Z,36.78
2022-09-07T01:10:33.658Z,30.25
2022-09-07T01:13:36.366Z,30.60
2022-09-07T01:16:53.723Z,31.52
2022-09-07T01:20:07.824Z,31.70
2022-09-07T01:23:36.365Z,29.45
2022-09-07T01:26:47.672Z,32.90
2022-09-07T01:30:02.930Z,28.75
2022-09-07T01:33:17.298Z,29.55
2022-09-07T01:36:31.758Z,27.57
2022-09-07T01:39:57.328Z,29.23
2022-09-07T01:43:09.621Z,29.42
2022-09-07T01:46:32.949Z,29.38
2022-09-07T01:49:46.308Z,29.77
2022-09-07T01:53:01.689Z,27.60
2022-09-07T01:56:15.880Z,31.25
2022-09-07T01:59:24.635Z,28.70
2022-09-07T02:02:31.244Z,28.50
2022-09-07T02:05:52.789Z,31.08
2022-09-07T02:09:07.356Z,32.13
2022-09-07T02:12:35.026Z,30.75
2022-09-07T02:16:06.868Z,30.08
2022-09-07T02:19:11.994Z,29.98
2022-09-07T02:22:16.944Z,32.67
2022-09-07T02:25:27.687Z,28.20
2022-09-07T02:28:35.101Z,26.30
2022-09-07T02:31:37.362Z,27.23
2022-09-07T02:34:39.828Z,26.98
2022-09-07T02:37:42.807Z,27.80
2022-09-07T02:40:53.884Z,29.57
2022-09-07T02:43:56.894Z,28.40
2022-09-07T02:47:17.574Z,29.98
2022-09-07T02:50:47.497Z,28.98
2022-09-07T02:54:06.342Z,30.48
2022-09-07T02:57:47.070Z,29.90
2022-09-07T03:00:54.285Z,31.20
2022-09-07T03:04:07.328Z,31.50
2022-09-07T03:07:15.594Z,34.17
2022-09-07T03:10:18.313Z,35.05
2022-09-07T03:13:28.927Z,32.43
2022-09-07T03:16:31.123Z,34.55
2022-09-07T03:19:33.377Z,31.48
2022-09-07T03:22:35.636Z,32.92
2022-09-07T03:25:38.555Z,33.03
2022-09-07T03:28:40.775Z,32.97
2022-09-07T03:31:43.194Z,34.17
2022-09-07T03:34:45.497Z,32.08
2022-09-07T03:37:47.721Z,31.45
2022-09-07T03:41:04.038Z,36.22
2022-09-07T03:44:07.628Z,37.87
2022-09-07T03:47:09.790Z,37.22
2022-09-07T03:50:12.102Z,34.95
2022-09-07T03:53:14.317Z,35.15
2022-09-07T03:56:19.416Z,34.83
2022-09-07T03:59:21.946Z,35.63
2022-09-07T04:02:24.213Z,37.28
2022-09-07T04:05:26.447Z,34.95
2022-09-07T04:08:29.816Z,35.80
2022-09-07T04:11:32.204Z,38.45
2022-09-07T04:14:34.465Z,39.43
2022-09-07T04:17:36.641Z,38.42
2022-09-07T04:20:38.875Z,36.10
2022-09-07T04:23:41.864Z,34.25
2022-09-07T04:26:44.752Z,33.33
2022-09-07T04:29:47.656Z,36.67
2022-09-07T04:32:49.938Z,35.28
2022-09-07T04:35:52.181Z,35.95
2022-09-07T04:39:00.040Z,32.90
2022-09-07T04:42:02.251Z,36.03
2022-09-07T04:45:05.273Z,38.50
2022-09-07T04:48:07.488Z,38.00
2022-09-07T04:51:10.898Z,37.95
2022-09-07T04:54:13.154Z,34.75
2022-09-07T04:57:15.405Z,33.40
2022-09-07T05:00:17.929Z,35.57
2022-09-07T05:03:20.449Z,32.90
2022-09-07T05:06:23.141Z,33.15
2022-09-07T05:09:25.385Z,33.67
2022-09-07T05:12:27.642Z,34.08
2022-09-07T05:15:30.524Z,31.17
2022-09-07T05:18:34.131Z,31.13
2022-09-07T05:21:36.427Z,32.63
2022-09-07T05:24:38.661Z,31.70
2022-09-07T05:27:40.838Z,31.25
2022-09-07T05:37:27.767Z,27.63
2022-09-07T05:40:37.209Z,30.50
2022-09-07T05:47:04.660Z,18.50
2022-09-07T05:50:11.526Z,15.90
2022-09-07T05:53:13.872Z,13.43
2022-09-07T05:56:16.395Z,12.55
2022-09-07T05:59:18.684Z,12.00
2022-09-07T06:02:21.153Z,11.50
2022-09-07T06:05:23.510Z,12.65
2022-09-07T06:08:26.593Z,14.15
2022-09-07T06:11:28.862Z,11.25
2022-09-07T06:14:32.206Z,11.75
2022-09-07T06:18:06.454Z,10.73
2022-09-07T06:21:13.795Z,12.13
2022-09-07T06:24:16.006Z,10.82
2022-09-07T06:27:18.225Z,9.90
2022-09-07T06:30:21.269Z,13.10
2022-09-07T06:33:23.443Z,10.57
2022-09-07T06:36:27.893Z,10.65
2022-09-07T06:39:30.116Z,10.15
2022-09-07T06:42:32.343Z,10.40
2022-09-07T06:45:34.628Z,10.55
2022-09-07T06:48:40.465Z,9.60
2022-09-07T06:51:44.852Z,10.07
2022-09-07T06:55:02.387Z,9.63
2022-09-07T06:58:04.709Z,8.98
2022-09-07T07:01:11.064Z,8.82
2022-09-07T07:04:14.131Z,9.77
2022-09-07T07:07:16.473Z,8.32
2022-09-07T07:10:23.621Z,8.90
2022-09-07T07:13:27.513Z,9.23
2022-09-07T07:16:29.840Z,8.07
2022-09-07T07:19:32.287Z,8.07
2022-09-07T07:22:49.703Z,8.43
2022-09-07T07:25:51.984Z,8.40
2022-09-07T07:32:02.458Z,7.85
2022-09-07T07:35:07.530Z,7.87
2022-09-07T07:48:17.633Z,7.90
2022-09-07T07:51:20.174Z,8.23
2022-09-07T07:54:22.963Z,8.02
2022-09-07T07:57:25.164Z,8.32
2022-09-07T08:00:50.902Z,8.23
2022-09-07T08:03:49.761Z,9.45
2022-09-07T08:06:52.451Z,8.20
2022-09-07T08:09:54.600Z,7.70
2022-09-07T08:12:57.043Z,7.57
2022-09-07T08:15:59.436Z,8.02
2022-09-07T08:19:02.009Z,8.73
2022-09-07T08:22:04.171Z,9.20
2022-09-07T08:25:07.299Z,7.85
2022-09-07T08:28:09.391Z,8.02
2022-09-07T08:31:14.139Z,8.52
2022-09-07T08:34:16.927Z,8.55
2022-09-07T08:37:19.091Z,6.90
2022-09-07T08:40:21.324Z,7.78
2022-09-07T08:43:57.198Z,7.25
2022-09-07T08:47:04.360Z,7.60
2022-09-07T08:50:11.698Z,8.13
2022-09-07T08:53:19.600Z,12.03
2022-09-07T08:56:34.665Z,7.22
2022-09-07T08:59:50.201Z,6.85
2022-09-07T09:06:22.679Z,6.88
2022-09-07T09:09:34.880Z,6.40
2022-09-07T09:13:04.916Z,7.15
2022-09-07T09:16:18.764Z,7.53
2022-09-07T09:19:30.160Z,6.88
2022-09-07T09:22:32.382Z,6.38
2022-09-07T09:25:35.702Z,8.20
2022-09-07T09:28:39.128Z,7.65
2022-09-07T09:31:42.084Z,6.93
2022-09-07T09:35:00.721Z,6.70
2022-09-07T09:38:03.759Z,7.60
2022-09-07T09:41:10.377Z,7.57
2022-09-07T09:44:15.881Z,7.47
2022-09-07T09:47:32.712Z,7.28
2022-09-07T09:54:17.125Z,8.45
2022-09-07T09:59:04.727Z,8.07
2022-09-07T10:01:35.459Z,7.10
2022-09-07T10:04:38.241Z,7.65
2022-09-07T10:07:40.408Z,8.40
2022-09-07T10:10:54.152Z,6.85
2022-09-07T10:13:57.924Z,8.20
2022-09-07T10:17:02.089Z,8.88
2022-09-07T10:20:16.125Z,7.57
2022-09-07T10:23:23.703Z,7.53
2022-09-07T10:26:32.073Z,8.82
2022-09-07T10:29:37.260Z,8.77
2022-09-07T10:32:42.320Z,8.10
2022-09-07T10:35:54.638Z,8.57
2022-09-07T10:39:27.069Z,10.10
2022-09-07T10:42:31.919Z,6.88
2022-09-07T10:45:51.250Z,7.83
2022-09-07T10:49:15.385Z,8.85
2022-09-07T10:52:38.850Z,8.60
2022-09-07T10:55:43.188Z,7.25
2022-09-07T10:59:02.152Z,7.78
2022-09-07T11:02:24.381Z,9.27
2022-09-07T11:05:38.440Z,9.20
2022-09-07T11:09:19.558Z,7.45
2022-09-07T11:12:28.245Z,8.50
2022-09-07T11:15:37.787Z,9.10
2022-09-07T11:18:45.929Z,9.57
2022-09-07T11:22:25.500Z,7.30
2022-09-07T11:25:54.702Z,8.23
2022-09-07T11:32:27.918Z,7.82
2022-09-07T11:35:42.528Z,8.57
2022-09-07T11:39:05.157Z,6.97
2022-09-07T11:42:43.491Z,7.47
2022-09-07T11:45:49.910Z,8.20
2022-09-07T11:48:56.174Z,8.10
2022-09-07T11:52:08.999Z,8.93
2022-09-07T11:55:25.830Z,7.82
2022-09-07T11:58:45.743Z,9.25
2022-09-07T12:02:01.340Z,9.15
2022-09-07T12:05:37.250Z,12.07
2022-09-07T12:08:43.163Z,10.60
2022-09-07T12:12:18.977Z,10.07
2022-09-07T12:15:24.900Z,13.50
2022-09-07T12:19:07.949Z,11.90
2022-09-07T12:22:20.494Z,11.38
2022-09-07T12:25:23.397Z,11.03
2022-09-07T12:28:25.539Z,11.35
2022-09-07T12:35:33.954Z,10.93
2022-09-07T12:39:06.230Z,11.07
2022-09-07T12:45:31.020Z,11.27
2022-09-07T12:49:06.767Z,10.85
2022-09-07T12:52:33.680Z,10.85
2022-09-07T12:56:19.179Z,10.93
2022-09-07T12:59:55.511Z,10.77
2022-09-07T13:03:04.809Z,10.25
2022-09-07T13:09:56.645Z,10.48
2022-09-07T13:20:11.171Z,12.02
2022-09-07T13:23:20.886Z,11.75
2022-09-07T13:26:58.849Z,12.48
2022-09-07T13:30:05.146Z,11.95
2022-09-07T13:33:26.040Z,11.90
2022-09-07T13:36:40.461Z,12.50
2022-09-07T13:39:46.611Z,12.55
2022-09-07T13:42:50.369Z,13.07
2022-09-07T13:45:53.446Z,13.20
2022-09-07T13:49:02.858Z,13.90
2022-09-07T13:52:33.791Z,13.68
2022-09-07T13:55:46.911Z,14.20
2022-09-07T13:58:52.198Z,14.98
2022-09-07T14:01:54.995Z,15.15
2022-09-07T14:05:00.643Z,15.20
2022-09-07T14:08:03.480Z,14.43
2022-09-07T14:11:19.186Z,16.40
2022-09-07T14:14:23.819Z,15.90
2022-09-07T14:17:27.964Z,16.83
2022-09-07T14:20:30.622Z,17.60
2022-09-07T14:23:35.843Z,18.08
2022-09-07T14:26:49.181Z,17.80
2022-09-07T14:29:57.911Z,19.10
2022-09-07T14:33:20.407Z,18.20
2022-09-07T14:36:46.112Z,18.97
2022-09-07T14:39:49.900Z,18.27
2022-09-07T14:42:54.294Z,18.10
2022-09-07T14:46:13.762Z,17.63
2022-09-07T14:49:20.631Z,18.33
2022-09-07T14:52:33.332Z,18.73
2022-09-07T14:55:44.764Z,18.35
2022-09-07T14:58:48.957Z,18.17
2022-09-07T15:02:09.483Z,18.42
2022-09-07T15:05:23.225Z,19.60
2022-09-07T15:08:46.336Z,18.63
2022-09-07T15:11:49.352Z,18.38
2022-09-07T15:14:51.569Z,18.38
2022-09-07T15:17:55.758Z,16.80
2022-09-07T15:20:58.027Z,17.65
2022-09-07T15:24:04.033Z,17.83
2022-09-07T15:27:24.249Z,17.25
2022-09-07T15:30:27.326Z,17.17
2022-09-07T15:33:31.414Z,16.48
2022-09-07T15:36:33.680Z,18.23
2022-09-07T15:39:36.445Z,16.77
2022-09-07T15:46:03.789Z,16.10
2022-09-07T15:49:06.177Z,15.68
2022-09-07T15:52:09.039Z,15.45
2022-09-07T15:55:11.758Z,15.80
2022-09-07T15:58:13.893Z,15.07
2022-09-07T16:04:38.824Z,14.73
2022-09-07T16:11:35.196Z,16.93
2022-09-07T16:14:37.621Z,15.82
2022-09-07T16:17:47.234Z,14.65
2022-09-07T16:20:52.614Z,14.77
2022-09-07T16:23:55.687Z,12.20
2022-09-07T16:26:58.110Z,12.87
2022-09-07T16:30:00.434Z,12.32
2022-09-07T16:33:02.686Z,12.52
2022-09-07T16:36:10.828Z,12.48
2022-09-07T16:39:13.019Z,12.68
2022-09-07T16:42:15.155Z,13.17
2022-09-07T16:48:39.812Z,15.38
2022-09-07T16:51:42.120Z,16.38
2022-09-07T16:54:44.379Z,15.32
2022-09-07T17:01:11.643Z,13.93
2022-09-07T17:04:14.649Z,13.00
2022-09-07T17:07:17.343Z,11.68
2022-09-07T17:10:19.497Z,13.02
2022-09-07T17:13:22.459Z,14.30
2022-09-07T17:16:27.643Z,13.15
2022-09-07T17:19:30.298Z,13.90
2022-09-07T17:22:32.741Z,12.85
2022-09-07T17:25:34.996Z,13.25
2022-09-07T17:28:37.955Z,12.90
2022-09-07T17:35:02.977Z,14.35
2022-09-07T17:41:34.783Z,14.82
2022-09-07T17:44:38.391Z,14.43
2022-09-07T17:47:41.455Z,15.85
2022-09-07T17:50:43.916Z,16.77
2022-09-07T17:53:46.406Z,14.68
2022-09-07T17:56:48.689Z,16.08
2022-09-07T18:03:14.717Z,16.98
2022-09-07T18:06:18.203Z,18.92
2022-09-07T18:09:24.455Z,17.00
2022-09-07T18:12:29.754Z,19.63
2022-09-07T18:15:32.421Z,18.70
2022-09-07T18:18:34.571Z,19.77
2022-09-07T18:21:38.195Z,20.25
2022-09-07T18:24:40.805Z,17.90
2022-09-07T18:29:03.071Z,16.63
2022-09-07T18:31:14.413Z,17.73
2022-09-07T18:34:17.042Z,17.83
2022-09-07T18:37:19.746Z,18.20
2022-09-07T18:40:23.446Z,20.02
2022-09-07T18:43:27.967Z,18.40
2022-09-07T18:46:30.931Z,19.03
2022-09-07T18:49:33.561Z,20.85
2022-09-07T18:52:52.555Z,18.90
2022-09-07T18:56:21.706Z,18.90
2022-09-07T18:59:24.301Z,20.13
2022-09-07T19:02:27.054Z,17.07
2022-09-07T19:08:54.491Z,18.30
2022-09-07T19:11:57.217Z,19.98
2022-09-07T19:14:59.739Z,18.80
2022-09-07T19:18:04.978Z,21.13
2022-09-07T19:21:12.314Z,20.63
2022-09-07T19:24:18.635Z,20.20
2022-09-07T19:27:21.213Z,21.30
2022-09-07T19:30:24.210Z,23.40
2022-09-07T19:33:26.956Z,21.83
2022-09-07T19:36:34.835Z,22.50
2022-09-07T19:39:37.812Z,19.52
2022-09-07T19:42:40.606Z,20.10
2022-09-07T19:45:46.979Z,20.67
2022-09-07T19:48:49.913Z,21.37
2022-09-07T19:51:52.787Z,20.60
2022-09-07T19:54:57.497Z,23.17
2022-09-07T19:58:06.841Z,22.20
2022-09-07T20:01:12.440Z,26.48
2022-09-07T20:04:20.431Z,26.33
2022-09-07T20:07:23.881Z,26.55
2022-09-07T20:10:26.309Z,26.05
2022-09-07T20:13:28.817Z,26.65
2022-09-07T20:16:31.622Z,26.27
2022-09-07T20:19:34.346Z,27.77
2022-09-07T20:22:36.629Z,28.20
2022-09-07T20:25:39.008Z,25.70
2022-09-07T20:28:41.811Z,26.63
2022-09-07T20:31:44.350Z,24.85
2022-09-07T20:34:46.791Z,26.23
2022-09-07T20:37:49.052Z,26.58
2022-09-07T20:40:55.923Z,26.60
2022-09-07T20:44:00.168Z,27.92
2022-09-07T20:47:02.877Z,25.67
2022-09-07T20:50:05.521Z,26.00
2022-09-07T20:53:07.981Z,29.80
2022-09-07T20:56:19.001Z,29.83
2022-09-07T20:59:21.859Z,32.08
2022-09-07T21:02:24.122Z,29.58
2022-09-07T21:05:26.308Z,27.13
2022-09-07T21:08:28.528Z,29.85
2022-09-07T21:11:32.897Z,28.90
2022-09-07T21:14:35.634Z,29.48
2022-09-07T21:17:38.836Z,30.08
2022-09-07T21:20:41.582Z,27.20
2022-09-07T21:23:43.820Z,31.23
2022-09-07T21:26:46.454Z,28.40
2022-09-07T21:29:48.603Z,28.02
2022-09-07T21:32:51.667Z,29.80
2022-09-07T21:35:54.271Z,28.87
2022-09-07T21:38:56.763Z,31.75
2022-09-07T21:41:58.883Z,32.50
2022-09-07T21:45:01.109Z,33.00
2022-09-07T21:48:03.452Z,35.42
2022-09-07T21:51:05.839Z,36.93
2022-09-07T21:54:08.271Z,35.65
2022-09-07T21:57:11.088Z,35.40
2022-09-07T22:00:13.937Z,39.35
2022-09-07T22:03:16.111Z,39.95
2022-09-07T22:06:18.501Z,36.67
2022-09-07T22:09:20.874Z,37.72
2022-09-07T22:12:23.119Z,39.83
2022-09-07T22:15:25.344Z,41.22
2022-09-07T22:18:30.302Z,35.72
2022-09-07T22:21:33.581Z,37.57
2022-09-07T22:24:36.026Z,36.58
2022-09-07T22:27:38.411Z,37.00
2022-09-07T22:30:40.573Z,35.08
2022-09-07T22:33:43.355Z,37.00
2022-09-07T22:36:45.880Z,44.40
2022-09-07T22:39:48.150Z,40.00
2022-09-07T22:42:53.131Z,43.55
2022-09-07T22:45:55.266Z,42.22
2022-09-07T22:48:58.397Z,46.67
2022-09-07T22:52:00.579Z,47.37
2022-09-07T22:55:03.285Z,43.70
2022-09-07T22:58:05.420Z,41.60
2022-09-07T23:01:07.567Z,42.50
2022-09-07T23:04:10.943Z,40.25
2022-09-07T23:07:13.180Z,42.90
2022-09-07T23:10:15.383Z,45.10
2022-09-07T23:13:17.706Z,45.35
2022-09-07T23:16:20.605Z,50.17
2022-09-07T23:19:22.860Z,45.40
2022-09-07T23:22:25.285Z,50.70
2022-09-07T23:25:28.614Z,48.10
2022-09-07T23:28:31.615Z,48.25
2022-09-07T23:31:35.070Z,46.10
2022-09-07T23:34:37.330Z,47.67
2022-09-07T23:37:39.528Z,43.30
2022-09-07T23:40:41.836Z,49.50
2022-09-07T23:43:44.267Z,51.15
2022-09-07T23:46:46.531Z,51.42
2022-09-07T23:49:48.698Z,51.30
2022-09-07T23:52:51.292Z,55.07
2022-09-07T23:55:53.538Z,55.28
2022-09-07T23:58:55.755Z,56.85
